메인 페이지
METAR-TAF:

METAR-TAF

공항 :

팔마데마요르카, 스페인

위도: 39-33N, 경도: 002-44E, 고도: 4m

현재 날씨관측

예보는 28분 전, 03:00시(UTC)에 발표되었습니다.
북북동2kt
온도 21°C
습도 94%
기압 1015 hPa
시정 10km 이상
고도 2500ft 상공 구름 조금

METAR: LEPA 170300Z 03002KT 9999 FEW025 21/20 Q1015 NOSIG

시각: 05:28 (03:28 UTC)

예보

예보는 4 시간 28분 전, 23:00시(UTC)에 발표되었습니다.
예보 대상 시간: 17일 00시부터 17일 24시까지 (UTC)
여러 방향의 바람 4kt
시정 10km 이상
고도 2500ft 상공 구름 보통
전환 중
17일 08시부터 17일 10시까지 (UTC)
남서10kt
전환 중
17일 16시부터 17일 18시까지 (UTC)
동북동7kt
일시적
17일 00시부터 17일 24시까지 (UTC)
고도 2000ft 상공 구름 보통, 적란운.
확률 30% :
일시적
17일 00시부터 17일 10시까지 (UTC)
시정: 4000m
고도 2000ft 상공 구름 보통, 적란운.
뇌우, 비
확률 40% :
일시적
17일 10시부터 17일 16시까지 (UTC)
여러 방향의 바람 12kt, 순간 최대 풍속 22kt
시정: 3000m
고도 2000ft 상공 구름 보통, 적란운.
고도 2500ft 상공 구름 많음
뇌우, 강한비

TAF: LEPA 162300Z 1700/1724 VRB04KT 9999 SCT025 TX29/1712Z TN20/1705Z BECMG 1708/1710 22010KT BECMG 1716/1718 07007KT TEMPO 1700/1724 SCT020CB PROB30 TEMPO 1700/1710 4000 TSRA SCT020CB PROB40 TEMPO 1710/1716 VRB12G22KT 3000 +TSRA SCT020CB BKN025

4,000개 이상의 공항 관측 자료 및 예보 (METAR 및 TAF 보고).

지도상에서 검색 가능한 기상관측소가 노란 점과 빨간 점으로 표시되어 있습니다.

기상관측소 명을 보려면 표시 위로 마우스를 이동하세요.

날씨 관측과 예보를 보려면 클릭하세요.

지도 변경 : 확대하려면 엑스 표시가 있는 녹색 버튼, 축소하려면 빼기 표시가 있는 녹색 버튼, 다음 페이지의 지도를 보려면 녹색 화살표를 클릭하세요.


METAR-TAF: